Time;durP1;ratioP1;P1;durP2;ratioP2;P2;SDS_P1;SDS_P2;PMS_P1;PMS_P2;Temp;Humidity;BMP_temperature;BMP_pressure;BME280_temperature;BME280_humidity;BME280_pressure;Samples;Min_cycle;Max_cycle;Signal;HPM_P1;HPM_P2
2024/04/11 00:00:48;;;;;;;;;;;;;;;20.32;30.38;98492.31;5388560;26;1326;-75
2024/04/11 00:03:15;;;;;;;;;;;;;;;19.91;30.92;98489.63;5388839;26;922;-75
2024/04/11 00:05:41;;;;;;;;;;;;;;;20.13;30.54;98488.13;5388942;26;894;-75
2024/04/11 00:08:06;;;;;;;;;;;;;;;20.57;29.89;98489.13;5419452;26;869;-75
2024/04/11 00:10:32;;;;;;;;;;;;;;;20.36;30.08;98497.91;5388564;26;930;-75
2024/04/11 00:12:58;;;;;;;;;;;;;;;20.52;29.84;98493.28;5388275;26;952;-75
2024/04/11 00:15:23;;;;;;;;;;;;;;;20.74;29.57;98490.91;5388370;26;1851;-75
2024/04/11 00:17:48;;;;;;;;;;;;;;;20.63;29.68;98484.63;5388719;26;1097;-75
2024/04/11 00:20:14;;;;;;;;;;;;;;;20.82;29.56;98491.59;5419405;26;882;-76
2024/04/11 00:22:40;;;;;;;;;;;;;;;20.52;29.91;98496.09;5388218;26;1003;-75
2024/04/11 00:25:05;;;;;;;;;;;;;;;20.57;29.88;98491.97;5388263;26;1095;-75
2024/04/11 00:27:31;;;;;;;;;;;;;;;20.72;29.59;98490.53;5358749;26;1265;-75
2024/04/11 00:29:56;;;;;;;;;;;;;;;20.52;29.83;98495.28;5330409;26;1135;-75
2024/04/11 00:32:23;;;;;;;;;;;;;;;20.47;30.06;98501.44;5358711;26;1377;-76
2024/04/11 00:34:48;;;;;;;;;;;;;;;20.34;30.26;98494.72;5388413;26;939;-75
2024/04/11 00:37:15;;;;;;;;;;;;;;;20.16;30.56;98494.94;5359780;26;1831;-75
2024/04/11 00:39:41;;;;;;;;;;;;;;;20.42;30.25;98493.41;5304259;26;1251;-76
2024/04/11 00:42:10;;;;;;;;;;;;;;;20.00;30.67;98492.72;5319955;26;1329;-75
2024/04/11 00:44:37;;;;;;;;;;;;;;;20.42;30.20;98499.06;5320139;26;1151;-75
2024/04/11 00:47:02;;;;;;;;;;;;;;;20.60;29.96;98496.78;5320504;26;1093;-75
2024/04/11 00:49:28;;;;;;;;;;;;;;;20.60;29.87;98499.59;5320243;26;885;-75
2024/04/11 00:51:53;;;;;;;;;;;;;;;20.90;29.68;98503.63;5320568;26;968;-76
2024/04/11 00:54:19;;;;;;;;;;;;;;;20.81;29.68;98501.31;5348955;26;984;-75
2024/04/11 00:56:46;;;;;;;;;;;;;;;20.86;29.37;98500.03;5320308;26;1864;-75
2024/04/11 00:59:12;;;;;;;;;;;;;;;20.32;30.33;98497.16;5320248;26;942;-76
2024/04/11 01:01:38;;;;;;;;;;;;;;;20.29;30.27;98507.28;5246727;27;972;-75
2024/04/11 01:04:04;;;;;;;;;;;;;;;20.51;30.12;98507.81;5246399;27;920;-76
2024/04/11 01:06:40;;;;;;;;;;;;;;;20.37;30.11;98505.97;5218786;27;950;-75
2024/04/11 01:09:06;;;;;;;;;;;;;;;20.28;30.39;98503.66;5218849;27;902;-75
2024/04/11 01:11:32;;;;;;;;;;;;;;;20.16;30.63;98511.88;5246486;27;895;-75
2024/04/11 01:13:57;;;;;;;;;;;;;;;20.27;30.63;98502.06;5246134;27;916;-74
2024/04/11 01:16:25;;;;;;;;;;;;;;;20.52;30.12;98500.94;5218608;27;1819;-75
2024/04/11 01:18:55;;;;;;;;;;;;;;;20.80;29.70;98509.00;5225920;27;951;-76
2024/04/11 01:21:21;;;;;;;;;;;;;;;20.53;29.89;98508.22;5279925;27;943;-75
2024/04/11 01:23:47;;;;;;;;;;;;;;;20.61;29.84;98504.03;5279812;27;1052;-75
2024/04/11 01:26:13;;;;;;;;;;;;;;;20.83;29.67;98513.03;5251752;27;1139;-75
2024/04/11 01:28:39;;;;;;;;;;;;;;;20.49;30.08;98501.78;5280097;27;1012;-76
2024/04/11 01:31:04;;;;;;;;;;;;;;;20.64;29.96;98511.69;5279894;27;909;-75
2024/04/11 01:33:30;;;;;;;;;;;;;;;20.63;29.83;98506.44;5367822;26;990;-75
2024/04/11 01:35:55;;;;;;;;;;;;;;;20.34;30.56;98503.19;5383386;26;1822;-76
2024/04/11 01:38:21;;;;;;;;;;;;;;;20.58;29.98;98510.56;5354259;26;954;-76
2024/04/11 01:40:47;;;;;;;;;;;;;;;20.29;30.44;98510.91;5354227;26;1032;-74
2024/04/11 01:43:14;;;;;;;;;;;;;;;20.51;30.41;98511.44;5383613;26;1022;-76
2024/04/11 01:45:40;;;;;;;;;;;;;;;20.54;30.17;98516.25;5383486;26;1139;-76
2024/04/11 01:48:06;;;;;;;;;;;;;;;20.51;30.19;98517.09;5354385;26;921;-75
2024/04/11 01:50:32;;;;;;;;;;;;;;;20.50;30.22;98520.34;5353315;26;907;-75
2024/04/11 01:52:57;;;;;;;;;;;;;;;20.73;29.99;98514.78;5285134;27;909;-75
2024/04/11 01:55:23;;;;;;;;;;;;;;;20.76;29.80;98515.94;5285079;27;1818;-75
2024/04/11 01:57:48;;;;;;;;;;;;;;;20.67;30.11;98512.84;5313795;27;947;-75
2024/04/11 02:00:14;;;;;;;;;;;;;;;20.69;29.75;98516.84;5313649;27;976;-75
2024/04/11 02:02:49;;;;;;;;;;;;;;;20.84;29.40;98519.47;5313549;27;945;-75
2024/04/11 02:05:15;;;;;;;;;;;;;;;20.53;29.73;98513.84;5285183;27;963;-76
2024/04/11 02:07:41;;;;;;;;;;;;;;;20.49;29.68;98518.75;5279408;27;1202;-75
2024/04/11 02:10:07;;;;;;;;;;;;;;;20.31;30.24;98518.94;5279586;27;1128;-75
2024/04/11 02:12:32;;;;;;;;;;;;;;;20.61;29.67;98515.34;5279281;27;1028;-75
2024/04/11 02:14:58;;;;;;;;;;;;;;;20.80;29.42;98523.16;5251555;27;1854;-75
2024/04/11 02:17:24;;;;;;;;;;;;;;;20.83;29.43;98515.84;5279284;27;981;-75
2024/04/11 02:19:50;;;;;;;;;;;;;;;20.86;29.55;98514.19;5279179;27;957;-75
2024/04/11 02:22:17;;;;;;;;;;;;;;;20.61;29.84;98520.19;5279106;27;1026;-75
2024/04/11 02:24:42;;;;;;;;;;;;;;;20.89;29.33;98519.00;5312610;26;1124;-75
2024/04/11 02:27:08;;;;;;;;;;;;;;;20.93;29.09;98517.69;5319263;26;1137;-75
2024/04/11 02:29:34;;;;;;;;;;;;;;;20.78;29.32;98513.50;5318490;26;1198;-76
2024/04/11 02:31:59;;;;;;;;;;;;;;;20.55;29.57;98520.66;5290186;26;1226;-75
2024/04/11 02:34:28;;;;;;;;;;;;;;;20.55;29.60;98528.34;5290110;26;911;-76
2024/04/11 02:36:54;;;;;;;;;;;;;;;20.87;28.99;98525.06;5291054;26;1837;-76
2024/04/11 02:39:20;;;;;;;;;;;;;;;20.44;29.79;98519.19;5261898;26;894;-75
2024/04/11 02:41:46;;;;;;;;;;;;;;;20.63;29.69;98521.38;5318849;26;1186;-76
2024/04/11 02:44:11;;;;;;;;;;;;;;;20.90;29.47;98523.41;5316445;26;1070;-75
2024/04/11 02:46:39;;;;;;;;;;;;;;;20.96;29.08;98530.19;5318772;26;1326;-76
2024/04/11 02:49:05;;;;;;;;;;;;;;;20.83;29.24;98529.16;5223097;27;1847;-75
2024/04/11 02:51:30;;;;;;;;;;;;;;;20.64;29.48;98525.81;5278623;27;1134;-75
2024/04/11 02:53:57;;;;;;;;;;;;;;;20.47;29.77;98526.88;5250831;27;1052;-75
2024/04/11 02:56:22;;;;;;;;;;;;;;;20.14;30.08;98526.44;5250623;27;1872;-75
2024/04/11 02:58:48;;;;;;;;;;;;;;;20.30;29.96;98520.97;5250661;27;924;-75
2024/04/11 03:01:16;;;;;;;;;;;;;;;20.34;30.29;98523.75;5248892;27;1159;-76
2024/04/11 03:03:42;;;;;;;;;;;;;;;20.46;29.85;98530.88;5251472;27;949;-75
2024/04/11 03:06:18;;;;;;;;;;;;;;;20.49;30.02;98524.41;5188559;27;997;-75
2024/04/11 03:08:53;;;;;;;;;;;;;;;20.45;30.28;98534.94;5218926;27;1581;-75
2024/04/11 03:11:19;;;;;;;;;;;;;;;20.67;29.75;98530.59;5217289;27;1126;-75
2024/04/11 03:13:44;;;;;;;;;;;;;;;20.77;29.68;98528.84;5119341;27;1164;-76
2024/04/11 03:16:11;;;;;;;;;;;;;;;21.03;29.46;98536.50;5146192;27;1823;-75
2024/04/11 03:18:39;;;;;;;;;;;;;;;20.41;30.27;98537.00;5146213;27;990;-76
2024/04/11 03:21:05;;;;;;;;;;;;;;;20.31;30.30;98535.91;5180461;27;1391;-75
2024/04/11 03:23:31;;;;;;;;;;;;;;;20.62;29.76;98539.56;5205625;27;940;-75
2024/04/11 03:25:56;;;;;;;;;;;;;;;20.48;30.24;98539.78;5219129;27;1209;-75
2024/04/11 03:28:22;;;;;;;;;;;;;;;20.39;30.10;98553.59;5216742;27;895;-75
2024/04/11 03:31:08;;;;;;;;;;;;;;;20.68;29.41;98549.19;5189417;27;873;-75
2024/04/11 03:33:36;;;;;;;;;;;;;;;20.57;30.14;98548.50;5244875;27;1182;-75
2024/04/11 03:36:05;;;;;;;;;;;;;;;20.99;29.38;98549.16;5216923;27;1826;-75
2024/04/11 03:38:31;;;;;;;;;;;;;;;20.79;29.64;98554.69;5216603;27;1161;-75
2024/04/11 03:40:59;;;;;;;;;;;;;;;20.89;29.67;98558.59;5162129;27;1220;-75
2024/04/11 03:43:27;;;;;;;;;;;;;;;21.03;29.40;98552.69;5258227;27;1259;-76
2024/04/11 03:45:53;;;;;;;;;;;;;;;20.79;29.65;98554.69;5322635;26;905;-76
2024/04/11 03:48:19;;;;;;;;;;;;;;;20.43;30.38;98554.34;5352736;26;903;-75
2024/04/11 03:50:45;;;;;;;;;;;;;;;20.67;29.99;98558.88;5352541;26;972;-75
2024/04/11 03:53:11;;;;;;;;;;;;;;;20.78;29.63;98565.22;5386694;26;960;-75
2024/04/11 03:55:41;;;;;;;;;;;;;;;20.64;30.05;98564.59;5388801;26;1822;-75
2024/04/11 03:58:07;;;;;;;;;;;;;;;20.58;29.91;98577.59;5388957;26;1020;-75
2024/04/11 04:00:33;;;;;;;;;;;;;;;20.80;29.58;98582.53;5420036;26;918;-75
2024/04/11 04:02:58;;;;;;;;;;;;;;;20.85;29.55;98580.47;5388990;26;1001;-75
2024/04/11 04:05:24;;;;;;;;;;;;;;;20.48;30.33;98587.84;5388549;26;1503;-75
2024/04/11 04:07:50;;;;;;;;;;;;;;;20.38;30.49;98592.34;5330526;26;1465;-75
2024/04/11 04:10:15;;;;;;;;;;;;;;;19.90;31.40;98589.66;5388529;26;1229;-75
2024/04/11 04:12:41;;;;;;;;;;;;;;;20.81;29.98;98592.63;5389856;26;953;-75
2024/04/11 04:15:08;;;;;;;;;;;;;;;20.76;29.77;98595.91;5362589;26;1850;-74
2024/04/11 04:17:33;;;;;;;;;;;;;;;20.71;30.02;98602.03;5392078;26;769;-75
2024/04/11 04:20:00;;;;;;;;;;;;;;;20.85;29.46;98609.53;5362014;26;1157;-76
2024/04/11 04:22:27;;;;;;;;;;;;;;;20.91;29.40;98615.53;5392098;26;876;-75
2024/04/11 04:24:52;;;;;;;;;;;;;;;20.54;29.95;98617.22;5362327;26;1213;-75
2024/04/11 04:27:18;;;;;;;;;;;;;;;20.65;29.54;98620.72;5422866;26;842;-75
2024/04/11 04:29:43;;;;;;;;;;;;;;;20.49;29.87;98629.00;5391449;26;874;-75
2024/04/11 04:32:11;;;;;;;;;;;;;;;20.27;30.42;98632.06;5391578;26;829;-75
2024/04/11 04:34:37;;;;;;;;;;;;;;;20.72;29.69;98620.63;5391812;26;844;-76
2024/04/11 04:37:02;;;;;;;;;;;;;;;20.25;30.75;98622.38;5391498;26;1857;-75
2024/04/11 04:39:31;;;;;;;;;;;;;;;20.30;30.36;98625.53;5422657;26;765;-75
2024/04/11 04:41:57;;;;;;;;;;;;;;;20.46;30.39;98626.97;5362649;26;1110;-75
2024/04/11 04:44:22;;;;;;;;;;;;;;;20.32;30.34;98627.16;5362190;26;1055;-75
2024/04/11 04:46:48;;;;;;;;;;;;;;;20.41;30.36;98627.44;5333301;26;1507;-75
2024/04/11 04:49:13;;;;;;;;;;;;;;;20.51;30.39;98640.69;5391270;26;769;-76
2024/04/11 04:51:39;;;;;;;;;;;;;;;20.78;29.92;98627.44;5422523;26;785;-75
2024/04/11 04:54:06;;;;;;;;;;;;;;;20.70;30.14;98625.91;5391333;26;705;-75
2024/04/11 04:56:32;;;;;;;;;;;;;;;20.94;29.54;98634.50;5361892;26;1818;-75
2024/04/11 04:58:58;;;;;;;;;;;;;;;20.93;29.65;98638.53;5422771;26;840;-74
2024/04/11 05:01:26;;;;;;;;;;;;;;;20.69;29.92;98646.13;5348791;26;816;-75
2024/04/11 05:03:52;;;;;;;;;;;;;;;20.61;30.04;98645.41;5320402;26;790;-75
2024/04/11 05:06:18;;;;;;;;;;;;;;;20.71;29.73;98644.47;5291414;26;691;-75
2024/04/11 05:08:47;;;;;;;;;;;;;;;20.40;30.68;98652.09;5348482;26;971;-75
2024/04/11 05:11:13;;;;;;;;;;;;;;;20.27;30.76;98653.84;5292181;26;845;-75
2024/04/11 05:13:39;;;;;;;;;;;;;;;20.47;30.39;98654.06;5320090;26;734;-75
2024/04/11 05:16:06;;;;;;;;;;;;;;;20.55;30.30;98652.75;5290946;26;1821;-75
2024/04/11 05:18:37;;;;;;;;;;;;;;;20.38;30.73;98653.75;5291695;26;719;-75
2024/04/11 05:21:09;;;;;;;;;;;;;;;20.92;29.81;98654.69;5319672;26;1242;-75
2024/04/11 05:23:36;;;;;;;;;;;;;;;21.01;29.77;98657.00;5262256;26;1237;-75
2024/04/11 05:26:07;;;;;;;;;;;;;;;20.96;29.81;98666.78;5291330;26;1501;-76
2024/04/11 05:28:40;;;;;;;;;;;;;;;20.97;29.82;98661.91;5320664;26;822;-75
2024/04/11 05:31:06;;;;;;;;;;;;;;;21.02;29.77;98658.59;5291419;26;1036;-76
2024/04/11 05:33:39;;;;;;;;;;;;;;;20.50;30.66;98653.22;5358348;26;1595;-75
2024/04/11 05:36:12;;;;;;;;;;;;;;;20.60;30.36;98666.41;5391634;26;1818;-76
2024/04/11 05:38:41;;;;;;;;;;;;;;;20.70;30.20;98654.19;5392412;26;856;-75
2024/04/11 05:41:10;;;;;;;;;;;;;;;20.62;30.34;98674.47;5390575;26;828;-75
2024/04/11 05:43:36;;;;;;;;;;;;;;;20.61;30.32;98673.69;5391158;26;877;-75
2024/04/11 05:46:04;;;;;;;;;;;;;;;20.23;30.92;98682.16;5361626;26;1169;-75
2024/04/11 05:48:31;;;;;;;;;;;;;;;20.43;30.41;98681.53;5421818;26;754;-75
2024/04/11 05:50:58;;;;;;;;;;;;;;;20.54;30.50;98674.56;5390290;26;1240;-75
2024/04/11 05:53:23;;;;;;;;;;;;;;;20.44;30.59;98691.63;5285115;27;831;-75
2024/04/11 05:55:51;;;;;;;;;;;;;;;20.45;30.65;98687.56;5285144;27;1837;-75
2024/04/11 05:58:19;;;;;;;;;;;;;;;20.57;30.56;98700.38;5285036;27;766;-74
2024/04/11 06:00:49;;;;;;;;;;;;;;;20.87;30.00;98699.63;5285563;27;730;-75
2024/04/11 06:03:18;;;;;;;;;;;;;;;21.01;29.84;98707.94;5258038;27;764;-75
2024/04/11 06:05:44;;;;;;;;;;;;;;;20.92;30.27;98711.28;5284990;27;960;-75
2024/04/11 06:08:10;;;;;;;;;;;;;;;20.89;30.15;98711.34;5256909;27;924;-76
2024/04/11 06:10:35;;;;;;;;;;;;;;;20.85;30.16;98716.22;5256789;27;707;-75
2024/04/11 06:13:03;;;;;;;;;;;;;;;20.49;30.78;98710.97;5313526;27;959;-75
2024/04/11 06:15:29;;;;;;;;;;;;;;;20.53;30.45;98711.75;5313331;27;1830;-75
2024/04/11 06:17:55;;;;;;;;;;;;;;;20.22;31.02;98716.50;5256235;27;889;-75
2024/04/11 06:20:24;;;;;;;;;;;;;;;20.23;30.95;98710.41;5284785;27;838;-75
2024/04/11 06:22:52;;;;;;;;;;;;;;;20.61;30.33;98718.91;5258342;27;972;-75
2024/04/11 06:25:18;;;;;;;;;;;;;;;20.46;30.81;98723.09;5345976;26;1040;-76
2024/04/11 06:27:44;;;;;;;;;;;;;;;20.65;30.74;98719.69;5347728;26;907;-75
2024/04/11 06:30:14;;;;;;;;;;;;;;;20.51;30.69;98722.66;5290480;26;1042;-75
2024/04/11 06:32:42;;;;;;;;;;;;;;;20.57;30.74;98726.63;5347678;26;899;-75
2024/04/11 06:35:08;;;;;;;;;;;;;;;20.68;30.80;98727.34;5283995;27;1843;-75
2024/04/11 06:37:34;;;;;;;;;;;;;;;20.89;30.57;98733.97;5284831;27;1077;-75
2024/04/11 06:40:11;;;;;;;;;;;;;;;20.69;30.94;98731.75;5256305;27;1263;-75
2024/04/11 06:42:40;;;;;;;;;;;;;;;20.80;30.69;98728.81;5284601;27;876;-75
2024/04/11 06:45:08;;;;;;;;;;;;;;;20.44;31.24;98736.84;5256822;27;780;-75
2024/04/11 06:47:34;;;;;;;;;;;;;;;20.69;30.78;98743.06;5285022;27;1263;-75
2024/04/11 06:49:59;;;;;;;;;;;;;;;20.65;31.10;98741.50;5283781;27;1525;-75
2024/04/11 06:52:25;;;;;;;;;;;;;;;20.57;30.94;98729.47;5312678;27;989;-75
2024/04/11 06:54:50;;;;;;;;;;;;;;;20.43;31.31;98735.25;5284311;27;699;-75
2024/04/11 06:57:21;;;;;;;;;;;;;;;20.11;31.90;98735.56;5312563;27;1850;-75
2024/04/11 06:59:49;;;;;;;;;;;;;;;20.49;31.01;98736.44;5320651;26;1755;-75
2024/04/11 07:02:16;;;;;;;;;;;;;;;20.48;31.06;98732.81;5382122;26;907;-75
2024/04/11 07:04:43;;;;;;;;;;;;;;;20.50;31.05;98730.34;5382043;26;1110;-76
2024/04/11 07:07:09;;;;;;;;;;;;;;;20.52;31.33;98741.22;5357327;26;907;-75
2024/04/11 07:09:38;;;;;;;;;;;;;;;20.30;31.49;98744.25;5359975;26;765;-74
2024/04/11 07:12:28;;;;;;;;;;;;;;;20.10;31.83;98740.38;5390307;26;899;-75
2024/04/11 07:14:54;;;;;;;;;;;;;;;20.49;31.57;98739.25;5365560;26;984;-75
2024/04/11 07:17:23;;;;;;;;;;;;;;;20.68;31.41;98746.34;5359792;26;1851;-75
2024/04/11 07:19:49;;;;;;;;;;;;;;;20.84;31.18;98748.56;5389925;26;793;-75
2024/04/11 07:22:18;;;;;;;;;;;;;;;20.57;31.52;98746.41;5389227;26;1131;-75
2024/04/11 07:24:43;;;;;;;;;;;;;;;20.72;31.18;98750.69;5360649;26;1011;-75
2024/04/11 07:27:11;;;;;;;;;;;;;;;20.46;31.68;98751.34;5420266;26;783;-75
2024/04/11 07:29:38;;;;;;;;;;;;;;;20.51;31.55;98753.75;5389721;26;836;-75
2024/04/11 07:32:05;;;;;;;;;;;;;;;20.49;31.51;98756.22;5360250;26;785;-75
2024/04/11 07:34:30;;;;;;;;;;;;;;;20.53;31.25;98757.00;5317636;26;758;-75
2024/04/11 07:36:56;;;;;;;;;;;;;;;20.69;31.12;98747.94;5346558;26;1857;-75
2024/04/11 07:39:22;;;;;;;;;;;;;;;20.29;31.69;98753.94;5346494;26;808;-75
2024/04/11 07:42:00;;;;;;;;;;;;;;;20.68;31.08;98752.78;5289400;26;840;-75
2024/04/11 07:44:25;;;;;;;;;;;;;;;20.53;31.52;98748.50;5346232;26;795;-75
2024/04/11 07:46:58;;;;;;;;;;;;;;;20.23;31.89;98746.34;5345695;26;705;-75
2024/04/11 07:49:24;;;;;;;;;;;;;;;20.70;31.03;98744.69;5290499;26;1126;-75
2024/04/11 07:51:51;;;;;;;;;;;;;;;20.12;32.08;98752.09;5317664;26;1216;-75
2024/04/11 07:54:16;;;;;;;;;;;;;;;20.41;31.87;98746.16;5289109;26;901;-75
2024/04/11 07:56:42;;;;;;;;;;;;;;;20.48;32.08;98749.75;5317513;26;1849;-75
2024/04/11 07:59:11;;;;;;;;;;;;;;;20.94;31.32;98747.66;5346160;26;1036;-75
2024/04/11 08:01:37;;;;;;;;;;;;;;;20.98;31.17;98745.56;5289348;26;855;-75
2024/04/11 08:04:05;;;;;;;;;;;;;;;21.06;31.10;98745.06;5317562;26;698;-75
2024/04/11 08:06:31;;;;;;;;;;;;;;;20.78;31.49;98746.22;5380134;26;1118;-75
2024/04/11 08:08:57;;;;;;;;;;;;;;;20.58;31.71;98748.06;5357891;26;863;-74
2024/04/11 08:11:23;;;;;;;;;;;;;;;20.71;31.71;98740.63;5328891;26;1238;-75
2024/04/11 08:13:49;;;;;;;;;;;;;;;20.68;31.77;98757.66;5329016;26;1228;-75
2024/04/11 08:16:15;;;;;;;;;;;;;;;20.40;32.42;98747.38;5416770;26;1837;-75
2024/04/11 08:18:40;;;;;;;;;;;;;;;20.78;31.63;98751.88;5416651;26;761;-75
2024/04/11 08:21:09;;;;;;;;;;;;;;;20.72;31.44;98759.19;5387184;26;844;-76
2024/04/11 08:23:37;;;;;;;;;;;;;;;20.61;32.03;98761.34;5386448;26;1082;-75
2024/04/11 08:26:06;;;;;;;;;;;;;;;20.19;32.59;98757.66;5357499;26;1475;-75
2024/04/11 08:28:37;;;;;;;;;;;;;;;20.42;32.06;98767.56;5357274;26;1174;-75
2024/04/11 08:31:08;;;;;;;;;;;;;;;20.28;32.31;98763.66;5387716;26;760;-75
2024/04/11 08:33:34;;;;;;;;;;;;;;;20.28;32.22;98758.00;5317664;26;837;-75
2024/04/11 08:36:00;;;;;;;;;;;;;;;20.26;32.28;98760.44;5317510;26;1830;-75
2024/04/11 08:38:26;;;;;;;;;;;;;;;20.20;32.57;98756.44;5288302;26;1369;-74
2024/04/11 08:40:51;;;;;;;;;;;;;;;20.28;32.25;98752.34;5276779;27;853;-75
2024/04/11 08:43:19;;;;;;;;;;;;;;;20.39;32.19;98760.72;5228143;27;1275;-75
2024/04/11 08:45:45;;;;;;;;;;;;;;;20.44;31.72;98760.25;5283624;27;735;-75
2024/04/11 08:48:11;;;;;;;;;;;;;;;20.43;31.97;98752.22;5311498;27;960;-75
2024/04/11 08:50:45;;;;;;;;;;;;;;;20.53;31.97;98752.13;5282792;27;722;-75
2024/04/11 08:53:11;;;;;;;;;;;;;;;20.37;32.51;98760.34;5225916;27;1036;-75
2024/04/11 08:55:36;;;;;;;;;;;;;;;20.38;32.79;98761.16;5282339;27;1862;-75
2024/04/11 08:58:02;;;;;;;;;;;;;;;20.83;32.29;98769.56;5282241;27;730;-75
2024/04/11 09:00:28;;;;;;;;;;;;;;;20.89;31.93;98762.25;5313524;27;845;-76
2024/04/11 09:02:55;;;;;;;;;;;;;;;20.90;31.81;98766.69;5252225;27;794;-74
2024/04/11 09:05:22;;;;;;;;;;;;;;;20.72;31.93;98764.84;5279359;27;781;-75
2024/04/11 09:07:47;;;;;;;;;;;;;;;20.42;32.36;98761.91;5286076;27;719;-75
2024/04/11 09:10:13;;;;;;;;;;;;;;;20.61;32.27;98769.81;5314231;27;691;-75
2024/04/11 09:12:46;;;;;;;;;;;;;;;20.50;32.51;98767.09;5251824;27;834;-75
2024/04/11 09:15:15;;;;;;;;;;;;;;;20.26;32.95;98776.56;5252689;27;1835;-75
2024/04/11 09:17:43;;;;;;;;;;;;;;;20.57;32.50;98769.03;5260121;27;1281;-75
2024/04/11 09:20:12;;;;;;;;;;;;;;;20.42;32.64;98768.38;5213084;27;827;-75
2024/04/11 09:22:46;;;;;;;;;;;;;;;20.49;32.59;98767.53;5186051;27;1234;-74
2024/04/11 09:25:12;;;;;;;;;;;;;;;20.51;32.58;98770.72;5185317;27;1036;-75
2024/04/11 09:27:37;;;;;;;;;;;;;;;20.57;32.35;98774.69;5185672;27;880;-75
2024/04/11 09:30:03;;;;;;;;;;;;;;;20.63;32.26;98767.38;5185773;27;740;-75
2024/04/11 09:32:30;;;;;;;;;;;;;;;20.29;32.61;98770.91;5212948;27;699;-75
2024/04/11 09:34:56;;;;;;;;;;;;;;;19.93;33.18;98772.41;5215735;27;821;-75
2024/04/11 09:37:23;;;;;;;;;;;;;;;20.19;32.67;98776.66;5245966;27;1849;-75
2024/04/11 09:39:49;;;;;;;;;;;;;;;19.60;33.97;98782.34;5218281;27;735;-75
2024/04/11 09:42:18;;;;;;;;;;;;;;;20.50;32.36;98778.41;5218147;27;902;-75
2024/04/11 09:44:52;;;;;;;;;;;;;;;20.55;32.40;98777.16;5217953;27;1221;-75
2024/04/11 09:47:38;;;;;;;;;;;;;;;20.37;32.72;98773.69;5218178;27;841;-75
2024/04/11 09:50:04;;;;;;;;;;;;;;;20.38;32.62;98784.56;5243661;26;1258;-75
2024/04/11 09:52:34;;;;;;;;;;;;;;;20.27;32.55;98779.00;5361492;26;816;-74
2024/04/11 09:55:03;;;;;;;;;;;;;;;20.64;32.13;98785.94;5362011;26;1104;-75
2024/04/11 09:57:29;;;;;;;;;;;;;;;20.29;32.56;98776.56;5332582;26;1180;-75
2024/04/11 09:59:55;;;;;;;;;;;;;;;20.47;32.20;98775.63;5361277;26;698;-75
2024/04/11 10:02:21;;;;;;;;;;;;;;;20.75;31.99;98789.47;5390568;26;1122;-75
2024/04/11 10:04:47;;;;;;;;;;;;;;;20.81;32.45;98789.81;5319218;26;786;-75
2024/04/11 10:07:25;;;;;;;;;;;;;;;20.88;32.71;98795.41;5291036;26;846;-75
2024/04/11 10:09:52;;;;;;;;;;;;;;;20.96;32.45;98779.13;5347514;26;856;-75
2024/04/11 10:12:19;;;;;;;;;;;;;;;20.94;32.34;98798.56;5291260;26;746;-74
2024/04/11 10:14:48;;;;;;;;;;;;;;;20.75;32.55;98795.13;5318886;26;801;-75
2024/04/11 10:17:13;;;;;;;;;;;;;;;20.94;32.26;98792.91;5319191;26;1837;-76
2024/04/11 10:19:43;;;;;;;;;;;;;;;20.66;32.75;98789.16;5289448;26;1874;-76
2024/04/11 10:22:09;;;;;;;;;;;;;;;20.60;32.90;98792.88;5318892;26;876;-75
2024/04/11 10:24:35;;;;;;;;;;;;;;;20.48;32.88;98791.38;5319150;26;1008;-75
2024/04/11 10:27:19;;;;;;;;;;;;;;;20.61;32.93;98797.28;5290401;26;838;-75
2024/04/11 10:29:46;;;;;;;;;;;;;;;20.62;32.55;98802.50;5312779;27;787;-75
2024/04/11 10:32:35;;;;;;;;;;;;;;;20.44;32.75;98793.38;5284538;27;791;-75
2024/04/11 10:35:10;;;;;;;;;;;;;;;20.59;32.56;98792.06;5290402;26;756;-75
2024/04/11 10:37:39;;;;;;;;;;;;;;;20.40;32.91;98786.97;5347404;26;851;-75
2024/04/11 10:40:09;;;;;;;;;;;;;;;20.30;32.99;98792.28;5376326;26;784;-75
2024/04/11 10:42:39;;;;;;;;;;;;;;;20.54;32.66;98792.50;5346434;26;849;-75
2024/04/11 10:45:07;;;;;;;;;;;;;;;20.51;32.65;98782.03;5340842;26;820;-73
2024/04/11 10:47:35;;;;;;;;;;;;;;;20.63;33.17;98773.03;5312451;27;951;-74
2024/04/11 10:50:02;;;;;;;;;;;;;;;21.32;32.24;98786.00;5312332;27;840;-73
2024/04/11 10:52:29;;;;;;;;;;;;;;;21.44;32.41;98772.50;5312159;27;759;-74
2024/04/11 10:55:12;;;;;;;;;;;;;;;21.43;32.55;98779.38;5312212;27;735;-74
2024/04/11 10:57:41;;;;;;;;;;;;;;;21.38;32.95;98777.03;5312507;27;877;-74
2024/04/11 11:00:10;;;;;;;;;;;;;;;20.91;33.94;98783.22;5298024;26;1268;-72
2024/04/11 11:02:39;;;;;;;;;;;;;;;21.49;33.29;98784.13;5317287;26;901;-73
2024/04/11 11:05:07;;;;;;;;;;;;;;;21.67;33.26;98789.56;5317997;26;738;-74
2024/04/11 11:07:33;;;;;;;;;;;;;;;21.57;33.78;98790.53;5282992;27;840;-73
2024/04/11 11:09:59;;;;;;;;;;;;;;;21.81;33.72;98783.69;5312046;27;880;-73
2024/04/11 11:12:24;;;;;;;;;;;;;;;22.00;33.73;98784.22;5311591;27;900;-74
2024/04/11 11:14:55;;;;;;;;;;;;;;;21.99;33.78;98788.28;5282927;27;1201;-73
2024/04/11 11:17:21;;;;;;;;;;;;;;;21.31;35.17;98783.59;5284285;27;1850;-74
2024/04/11 11:19:50;;;;;;;;;;;;;;;22.03;34.16;98783.38;5283377;27;806;-74
2024/04/11 11:22:37;;;;;;;;;;;;;;;21.96;34.27;98781.41;5282077;27;1336;-73
2024/04/11 11:25:08;;;;;;;;;;;;;;;21.94;34.66;98788.75;5311705;27;1281;-73
2024/04/11 11:27:34;;;;;;;;;;;;;;;21.99;34.67;98793.94;5311821;27;789;-73
2024/04/11 11:30:00;;;;;;;;;;;;;;;22.12;34.33;98780.78;5283221;27;740;-75
2024/04/11 11:32:26;;;;;;;;;;;;;;;21.98;34.67;98786.69;5312114;27;804;-73
2024/04/11 11:34:51;;;;;;;;;;;;;;;21.98;34.55;98776.16;5311704;27;850;-73
2024/04/11 11:37:21;;;;;;;;;;;;;;;22.04;34.78;98779.28;5283545;27;1830;-73
2024/04/11 11:39:50;;;;;;;;;;;;;;;21.96;34.76;98777.78;5297828;26;793;-74
2024/04/11 11:42:26;;;;;;;;;;;;;;;22.27;34.02;98778.53;5318124;26;714;-76
2024/04/11 11:47:36;;;;;;;;;;;;;;;21.97;34.15;98779.41;5387777;26;1308;-72
2024/04/11 11:50:01;;;;;;;;;;;;;;;22.06;34.02;98768.31;5390698;26;773;-76
2024/04/11 11:52:27;;;;;;;;;;;;;;;21.82;34.04;98771.13;5359087;26;1268;-75
2024/04/11 11:54:54;;;;;;;;;;;;;;;21.47;34.28;98766.00;5317319;26;813;-75
2024/04/11 11:57:22;;;;;;;;;;;;;;;21.51;34.17;98769.56;5317594;26;1814;-75
2024/04/11 11:59:47;;;;;;;;;;;;;;;21.44;34.08;98778.16;5346113;26;848;-75
2024/04/11 12:02:16;;;;;;;;;;;;;;;21.23;34.30;98771.50;5346345;26;954;-75
2024/04/11 12:04:44;;;;;;;;;;;;;;;21.39;34.18;98764.47;5316456;26;897;-73
2024/04/11 12:07:13;;;;;;;;;;;;;;;21.55;33.97;98764.63;5345537;26;1024;-72
2024/04/11 12:09:43;;;;;;;;;;;;;;;21.74;33.66;98766.78;5345710;26;1043;-72
2024/04/11 12:12:30;;;;;;;;;;;;;;;21.81;33.70;98760.22;5345401;26;1082;-75
2024/04/11 12:14:54;;;;;;;;;;;;;;;21.44;34.07;98770.44;5345194;26;1244;-75
2024/04/11 12:17:23;;;;;;;;;;;;;;;21.37;34.11;98758.44;5344950;26;1846;-76
2024/04/11 12:19:49;;;;;;;;;;;;;;;21.32;33.96;98763.34;5345892;26;969;-76
2024/04/11 12:22:18;;;;;;;;;;;;;;;21.58;33.30;98752.47;5345743;26;954;-75
2024/04/11 12:24:50;;;;;;;;;;;;;;;21.08;34.11;98758.75;5346835;26;1312;-76
2024/04/11 12:27:16;;;;;;;;;;;;;;;20.94;34.29;98756.13;5387949;26;1022;-75
2024/04/11 12:29:42;;;;;;;;;;;;;;;20.94;34.02;98753.31;5316701;26;892;-73
2024/04/11 12:32:12;;;;;;;;;;;;;;;21.29;33.79;98752.03;5345660;26;852;-76
2024/04/11 12:34:42;;;;;;;;;;;;;;;21.15;34.00;98761.53;5319619;26;873;-75
2024/04/11 12:37:11;;;;;;;;;;;;;;;20.93;33.93;98758.13;5319783;26;1840;-75
2024/04/11 12:39:41;;;;;;;;;;;;;;;21.18;33.54;98749.34;5348992;26;926;-75
2024/04/11 12:42:07;;;;;;;;;;;;;;;21.29;33.32;98747.16;5285756;27;836;-75
2024/04/11 12:44:36;;;;;;;;;;;;;;;21.06;33.51;98745.06;5286401;27;814;-74
2024/04/11 12:47:13;;;;;;;;;;;;;;;21.24;33.14;98742.00;5314270;27;798;-76
2024/04/11 12:49:47;;;;;;;;;;;;;;;21.09;33.64;98740.59;5257705;27;1072;-74
2024/04/11 12:52:13;;;;;;;;;;;;;;;20.89;33.66;98739.63;5286928;27;718;-75
2024/04/11 12:54:40;;;;;;;;;;;;;;;20.96;33.51;98739.53;5313990;27;904;-75
2024/04/11 12:57:06;;;;;;;;;;;;;;;20.98;33.20;98739.91;5285501;27;1830;-75
2024/04/11 12:59:31;;;;;;;;;;;;;;;21.17;32.97;98736.41;5314050;26;858;-75
2024/04/11 13:01:57;;;;;;;;;;;;;;;20.91;33.43;98749.28;5383651;26;943;-75
2024/04/11 13:04:28;;;;;;;;;;;;;;;20.86;33.27;98746.91;5354520;26;815;-75
2024/04/11 13:07:01;;;;;;;;;;;;;;;20.91;33.01;98742.81;5298197;26;1848;-75